sensor_id;sensor_type;location;lat;lon;timestamp;pressure;altitude;pressure_sealevel;temperature;humidity
74790;BME280;63318;52.406;13.416;2023-04-16T00:00:08;101074.45;;;9.92;87.35
74790;BME280;63318;52.406;13.416;2023-04-16T00:02:37;101075.73;;;9.92;87.29
74790;BME280;63318;52.406;13.416;2023-04-16T00:05:06;101078.90;;;9.92;87.43
74790;BME280;63318;52.406;13.416;2023-04-16T00:07:36;101076.69;;;9.92;87.13
74790;BME280;63318;52.406;13.416;2023-04-16T00:10:06;101078.86;;;9.93;87.26
74790;BME280;63318;52.406;13.416;2023-04-16T00:12:35;101079.04;;;9.93;87.25
74790;BME280;63318;52.406;13.416;2023-04-16T00:15:04;101082.45;;;9.93;87.21
74790;BME280;63318;52.406;13.416;2023-04-16T00:17:33;101084.34;;;9.93;87.27
74790;BME280;63318;52.406;13.416;2023-04-16T00:20:02;101084.01;;;9.92;87.26
74790;BME280;63318;52.406;13.416;2023-04-16T00:22:31;101084.90;;;9.92;87.21
74790;BME280;63318;52.406;13.416;2023-04-16T00:25:00;101082.03;;;9.93;87.11
74790;BME280;63318;52.406;13.416;2023-04-16T00:27:28;101081.48;;;9.93;87.17
74790;BME280;63318;52.406;13.416;2023-04-16T00:29:56;101082.58;;;9.93;87.32
74790;BME280;63318;52.406;13.416;2023-04-16T00:32:24;101088.41;;;9.93;87.32
74790;BME280;63318;52.406;13.416;2023-04-16T00:34:53;101087.34;;;9.92;87.33
74790;BME280;63318;52.406;13.416;2023-04-16T00:37:22;101089.69;;;9.93;87.26
74790;BME280;63318;52.406;13.416;2023-04-16T00:39:51;101089.94;;;9.92;87.20
74790;BME280;63318;52.406;13.416;2023-04-16T00:42:19;101088.52;;;9.92;87.34
74790;BME280;63318;52.406;13.416;2023-04-16T00:44:48;101089.05;;;9.91;87.29
74790;BME280;63318;52.406;13.416;2023-04-16T00:47:17;101089.30;;;9.89;87.19
74790;BME280;63318;52.406;13.416;2023-04-16T00:49:47;101091.19;;;9.87;87.09
74790;BME280;63318;52.406;13.416;2023-04-16T00:52:16;101090.53;;;9.85;87.06
74790;BME280;63318;52.406;13.416;2023-04-16T00:54:44;101092.40;;;9.84;87.16
74790;BME280;63318;52.406;13.416;2023-04-16T00:57:13;101090.96;;;9.82;87.04
74790;BME280;63318;52.406;13.416;2023-04-16T00:59:42;101094.16;;;9.81;87.15
74790;BME280;63318;52.406;13.416;2023-04-16T01:02:11;101092.03;;;9.79;87.13
74790;BME280;63318;52.406;13.416;2023-04-16T01:04:39;101093.95;;;9.77;87.16
74790;BME280;63318;52.406;13.416;2023-04-16T01:07:08;101097.39;;;9.77;87.04
74790;BME280;63318;52.406;13.416;2023-04-16T01:09:37;101097.41;;;9.74;87.15
74790;BME280;63318;52.406;13.416;2023-04-16T01:12:06;101099.14;;;9.74;87.35
74790;BME280;63318;52.406;13.416;2023-04-16T01:14:34;101102.29;;;9.74;87.18
74790;BME280;63318;52.406;13.416;2023-04-16T01:17:03;101101.84;;;9.73;87.45
74790;BME280;63318;52.406;13.416;2023-04-16T01:19:32;101102.23;;;9.73;87.19
74790;BME280;63318;52.406;13.416;2023-04-16T01:22:01;101103.55;;;9.73;87.12
74790;BME280;63318;52.406;13.416;2023-04-16T01:24:30;101108.00;;;9.73;87.35
74790;BME280;63318;52.406;13.416;2023-04-16T01:26:59;101110.21;;;9.73;87.30
74790;BME280;63318;52.406;13.416;2023-04-16T01:29:28;101111.05;;;9.73;87.18
74790;BME280;63318;52.406;13.416;2023-04-16T01:31:57;101113.37;;;9.72;87.07
74790;BME280;63318;52.406;13.416;2023-04-16T01:34:25;101113.20;;;9.72;87.12
74790;BME280;63318;52.406;13.416;2023-04-16T01:36:55;101115.04;;;9.72;87.11
74790;BME280;63318;52.406;13.416;2023-04-16T01:39:24;101115.38;;;9.72;87.34
74790;BME280;63318;52.406;13.416;2023-04-16T01:41:53;101115.98;;;9.72;87.32
74790;BME280;63318;52.406;13.416;2023-04-16T01:44:22;101116.10;;;9.72;87.26
74790;BME280;63318;52.406;13.416;2023-04-16T01:46:50;101118.02;;;9.72;87.28
74790;BME280;63318;52.406;13.416;2023-04-16T01:49:19;101116.81;;;9.72;87.35
74790;BME280;63318;52.406;13.416;2023-04-16T01:51:48;101116.75;;;9.72;87.52
74790;BME280;63318;52.406;13.416;2023-04-16T01:54:16;101117.59;;;9.72;87.32
74790;BME280;63318;52.406;13.416;2023-04-16T01:56:45;101120.65;;;9.73;87.17
74790;BME280;63318;52.406;13.416;2023-04-16T01:59:13;101121.15;;;9.73;87.33
74790;BME280;63318;52.406;13.416;2023-04-16T02:01:42;101123.59;;;9.74;87.28
74790;BME280;63318;52.406;13.416;2023-04-16T02:04:11;101124.61;;;9.74;87.57
74790;BME280;63318;52.406;13.416;2023-04-16T02:06:40;101124.00;;;9.75;87.33
74790;BME280;63318;52.406;13.416;2023-04-16T02:09:09;101124.84;;;9.75;87.53
74790;BME280;63318;52.406;13.416;2023-04-16T02:11:37;101127.45;;;9.76;87.35
74790;BME280;63318;52.406;13.416;2023-04-16T02:14:06;101125.74;;;9.76;87.36
74790;BME280;63318;52.406;13.416;2023-04-16T02:16:37;101128.58;;;9.77;87.39
74790;BME280;63318;52.406;13.416;2023-04-16T02:19:06;101130.80;;;9.77;87.51
74790;BME280;63318;52.406;13.416;2023-04-16T02:21:35;101134.02;;;9.78;87.27
74790;BME280;63318;52.406;13.416;2023-04-16T02:24:03;101132.25;;;9.78;87.35
74790;BME280;63318;52.406;13.416;2023-04-16T02:26:32;101130.48;;;9.79;87.44
74790;BME280;63318;52.406;13.416;2023-04-16T02:29:01;101133.21;;;9.79;87.37
74790;BME280;63318;52.406;13.416;2023-04-16T02:31:30;101135.21;;;9.79;87.33
74790;BME280;63318;52.406;13.416;2023-04-16T02:33:59;101135.14;;;9.79;87.35
74790;BME280;63318;52.406;13.416;2023-04-16T02:36:27;101139.91;;;9.79;87.40
74790;BME280;63318;52.406;13.416;2023-04-16T02:38:56;101140.26;;;9.79;87.33
74790;BME280;63318;52.406;13.416;2023-04-16T02:41:25;101140.69;;;9.79;87.48
74790;BME280;63318;52.406;13.416;2023-04-16T02:43:53;101144.63;;;9.78;87.33
74790;BME280;63318;52.406;13.416;2023-04-16T02:46:22;101144.67;;;9.77;87.38
74790;BME280;63318;52.406;13.416;2023-04-16T02:48:50;101145.83;;;9.77;87.49
74790;BME280;63318;52.406;13.416;2023-04-16T02:51:19;101146.36;;;9.76;87.45
74790;BME280;63318;52.406;13.416;2023-04-16T02:53:47;101145.31;;;9.76;87.42
74790;BME280;63318;52.406;13.416;2023-04-16T02:56:16;101148.09;;;9.75;87.28
74790;BME280;63318;52.406;13.416;2023-04-16T02:58:44;101146.70;;;9.75;87.48
74790;BME280;63318;52.406;13.416;2023-04-16T03:01:13;101151.47;;;9.75;87.38
74790;BME280;63318;52.406;13.416;2023-04-16T03:03:41;101151.20;;;9.76;87.39
74790;BME280;63318;52.406;13.416;2023-04-16T03:06:10;101148.77;;;9.76;87.54
74790;BME280;63318;52.406;13.416;2023-04-16T03:08:38;101150.27;;;9.76;87.49
74790;BME280;63318;52.406;13.416;2023-04-16T03:11:06;101149.42;;;9.75;87.69
74790;BME280;63318;52.406;13.416;2023-04-16T03:13:35;101155.85;;;9.76;87.54
74790;BME280;63318;52.406;13.416;2023-04-16T03:16:04;101153.30;;;9.75;87.65
74790;BME280;63318;52.406;13.416;2023-04-16T03:18:33;101158.48;;;9.76;87.60
74790;BME280;63318;52.406;13.416;2023-04-16T03:21:01;101157.65;;;9.77;87.55
74790;BME280;63318;52.406;13.416;2023-04-16T03:23:30;101161.38;;;9.78;87.69
74790;BME280;63318;52.406;13.416;2023-04-16T03:25:58;101162.13;;;9.79;87.45
74790;BME280;63318;52.406;13.416;2023-04-16T03:28:26;101165.77;;;9.78;87.61
74790;BME280;63318;52.406;13.416;2023-04-16T03:30:55;101162.48;;;9.78;87.63
74790;BME280;63318;52.406;13.416;2023-04-16T03:33:23;101164.21;;;9.78;87.66
74790;BME280;63318;52.406;13.416;2023-04-16T03:35:58;101164.15;;;9.77;87.59
74790;BME280;63318;52.406;13.416;2023-04-16T03:38:27;101166.05;;;9.76;87.52
74790;BME280;63318;52.406;13.416;2023-04-16T03:40:56;101168.29;;;9.75;87.60
74790;BME280;63318;52.406;13.416;2023-04-16T03:43:24;101166.90;;;9.75;87.49
74790;BME280;63318;52.406;13.416;2023-04-16T03:45:53;101170.34;;;9.74;87.62
74790;BME280;63318;52.406;13.416;2023-04-16T03:48:22;101171.34;;;9.75;87.59
74790;BME280;63318;52.406;13.416;2023-04-16T03:50:51;101176.55;;;9.75;87.58
74790;BME280;63318;52.406;13.416;2023-04-16T03:53:19;101180.38;;;9.75;87.48
74790;BME280;63318;52.406;13.416;2023-04-16T03:55:50;101185.88;;;9.75;87.48
74790;BME280;63318;52.406;13.416;2023-04-16T03:58:20;101187.58;;;9.74;87.44
74790;BME280;63318;52.406;13.416;2023-04-16T04:00:53;101191.06;;;9.73;87.57
74790;BME280;63318;52.406;13.416;2023-04-16T04:03:22;101194.70;;;9.72;87.60
74790;BME280;63318;52.406;13.416;2023-04-16T04:05:50;101196.91;;;9.71;87.48
74790;BME280;63318;52.406;13.416;2023-04-16T04:08:20;101197.66;;;9.69;87.56
74790;BME280;63318;52.406;13.416;2023-04-16T04:10:48;101199.57;;;9.67;87.51
74790;BME280;63318;52.406;13.416;2023-04-16T04:13:17;101201.71;;;9.65;87.53
74790;BME280;63318;52.406;13.416;2023-04-16T04:15:46;101205.57;;;9.63;87.52
74790;BME280;63318;52.406;13.416;2023-04-16T04:18:14;101209.16;;;9.61;87.40
74790;BME280;63318;52.406;13.416;2023-04-16T04:20:43;101211.06;;;9.60;87.46
74790;BME280;63318;52.406;13.416;2023-04-16T04:23:12;101214.46;;;9.60;87.54
74790;BME280;63318;52.406;13.416;2023-04-16T04:25:40;101215.55;;;9.59;87.37
74790;BME280;63318;52.406;13.416;2023-04-16T04:28:09;101214.24;;;9.56;87.42
74790;BME280;63318;52.406;13.416;2023-04-16T04:30:37;101221.42;;;9.54;87.33
74790;BME280;63318;52.406;13.416;2023-04-16T04:33:06;101223.73;;;9.53;87.41
74790;BME280;63318;52.406;13.416;2023-04-16T04:35:34;101225.67;;;9.52;87.42
74790;BME280;63318;52.406;13.416;2023-04-16T04:38:03;101221.44;;;9.51;87.55
74790;BME280;63318;52.406;13.416;2023-04-16T04:43:01;101224.41;;;9.50;87.74
74790;BME280;63318;52.406;13.416;2023-04-16T04:45:29;101229.56;;;9.50;87.55
74790;BME280;63318;52.406;13.416;2023-04-16T04:47:58;101230.29;;;9.50;87.64
74790;BME280;63318;52.406;13.416;2023-04-16T04:50:26;101229.45;;;9.50;87.64
74790;BME280;63318;52.406;13.416;2023-04-16T04:52:54;101236.15;;;9.52;87.48
74790;BME280;63318;52.406;13.416;2023-04-16T04:55:23;101238.81;;;9.52;87.54
74790;BME280;63318;52.406;13.416;2023-04-16T04:57:52;101236.77;;;9.53;87.63
74790;BME280;63318;52.406;13.416;2023-04-16T05:00:21;101239.02;;;9.54;87.53
74790;BME280;63318;52.406;13.416;2023-04-16T05:02:49;101242.84;;;9.55;87.60
74790;BME280;63318;52.406;13.416;2023-04-16T05:05:17;101242.23;;;9.55;87.62
74790;BME280;63318;52.406;13.416;2023-04-16T05:07:46;101244.00;;;9.54;87.47
74790;BME280;63318;52.406;13.416;2023-04-16T05:10:15;101247.27;;;9.54;87.78
74790;BME280;63318;52.406;13.416;2023-04-16T05:12:43;101252.64;;;9.55;87.71
74790;BME280;63318;52.406;13.416;2023-04-16T05:15:13;101258.16;;;9.56;87.58
74790;BME280;63318;52.406;13.416;2023-04-16T05:17:41;101261.45;;;9.56;87.71
74790;BME280;63318;52.406;13.416;2023-04-16T05:20:10;101262.73;;;9.57;87.51
74790;BME280;63318;52.406;13.416;2023-04-16T05:22:39;101265.95;;;9.58;87.66
74790;BME280;63318;52.406;13.416;2023-04-16T05:25:09;101268.17;;;9.58;87.59
74790;BME280;63318;52.406;13.416;2023-04-16T05:27:37;101272.48;;;9.59;87.61
74790;BME280;63318;52.406;13.416;2023-04-16T05:30:08;101273.88;;;9.57;87.39
74790;BME280;63318;52.406;13.416;2023-04-16T05:32:39;101275.09;;;9.56;87.63
74790;BME280;63318;52.406;13.416;2023-04-16T05:35:10;101275.88;;;9.56;87.49
74790;BME280;63318;52.406;13.416;2023-04-16T05:37:39;101279.34;;;9.55;87.42
74790;BME280;63318;52.406;13.416;2023-04-16T05:40:10;101279.55;;;9.55;87.42
74790;BME280;63318;52.406;13.416;2023-04-16T05:42:39;101280.40;;;9.56;87.60
74790;BME280;63318;52.406;13.416;2023-04-16T05:45:10;101278.69;;;9.56;87.56
74790;BME280;63318;52.406;13.416;2023-04-16T05:47:38;101280.20;;;9.57;87.52
74790;BME280;63318;52.406;13.416;2023-04-16T05:50:08;101283.27;;;9.57;87.70
74790;BME280;63318;52.406;13.416;2023-04-16T05:52:38;101284.39;;;9.58;87.60
74790;BME280;63318;52.406;13.416;2023-04-16T05:55:10;101290.41;;;9.60;87.41
74790;BME280;63318;52.406;13.416;2023-04-16T05:57:39;101287.02;;;9.60;87.51
74790;BME280;63318;52.406;13.416;2023-04-16T06:00:09;101291.36;;;9.61;87.54
74790;BME280;63318;52.406;13.416;2023-04-16T06:02:38;101293.77;;;9.61;87.73
74790;BME280;63318;52.406;13.416;2023-04-16T06:05:07;101291.86;;;9.61;87.58
74790;BME280;63318;52.406;13.416;2023-04-16T06:07:36;101295.98;;;9.62;87.54
74790;BME280;63318;52.406;13.416;2023-04-16T06:10:05;101301.23;;;9.64;87.60
74790;BME280;63318;52.406;13.416;2023-04-16T06:12:35;101303.30;;;9.66;87.61
74790;BME280;63318;52.406;13.416;2023-04-16T06:15:04;101305.48;;;9.67;87.67
74790;BME280;63318;52.406;13.416;2023-04-16T06:17:34;101309.50;;;9.68;87.74
74790;BME280;63318;52.406;13.416;2023-04-16T06:20:03;101315.66;;;9.69;87.64
74790;BME280;63318;52.406;13.416;2023-04-16T06:22:32;101317.31;;;9.70;87.58
74790;BME280;63318;52.406;13.416;2023-04-16T06:25:02;101317.77;;;9.71;87.65
74790;BME280;63318;52.406;13.416;2023-04-16T06:27:31;101317.27;;;9.71;87.52
74790;BME280;63318;52.406;13.416;2023-04-16T06:29:59;101317.02;;;9.70;87.47
74790;BME280;63318;52.406;13.416;2023-04-16T06:32:28;101317.79;;;9.70;87.41
74790;BME280;63318;52.406;13.416;2023-04-16T06:34:56;101321.53;;;9.71;87.61
74790;BME280;63318;52.406;13.416;2023-04-16T06:37:25;101321.09;;;9.71;87.50
74790;BME280;63318;52.406;13.416;2023-04-16T06:39:54;101324.00;;;9.72;87.62
74790;BME280;63318;52.406;13.416;2023-04-16T06:42:23;101324.93;;;9.72;87.63
74790;BME280;63318;52.406;13.416;2023-04-16T06:44:52;101322.95;;;9.73;87.57
74790;BME280;63318;52.406;13.416;2023-04-16T06:47:21;101321.63;;;9.74;87.72
74790;BME280;63318;52.406;13.416;2023-04-16T06:49:49;101325.01;;;9.77;87.66
74790;BME280;63318;52.406;13.416;2023-04-16T06:52:18;101325.95;;;9.85;87.61
74790;BME280;63318;52.406;13.416;2023-04-16T06:54:48;101329.67;;;9.88;87.38
74790;BME280;63318;52.406;13.416;2023-04-16T06:57:17;101333.65;;;9.91;87.43
74790;BME280;63318;52.406;13.416;2023-04-16T06:59:45;101336.70;;;9.95;87.49
74790;BME280;63318;52.406;13.416;2023-04-16T07:02:14;101337.59;;;9.98;87.38
74790;BME280;63318;52.406;13.416;2023-04-16T07:04:42;101339.85;;;10.02;87.69
74790;BME280;63318;52.406;13.416;2023-04-16T07:07:12;101338.95;;;10.05;87.58
74790;BME280;63318;52.406;13.416;2023-04-16T07:09:41;101344.77;;;10.08;87.62
74790;BME280;63318;52.406;13.416;2023-04-16T07:12:10;101344.47;;;10.12;87.56
74790;BME280;63318;52.406;13.416;2023-04-16T07:14:39;101345.59;;;10.17;87.68
74790;BME280;63318;52.406;13.416;2023-04-16T07:17:08;101345.02;;;10.20;87.61
74790;BME280;63318;52.406;13.416;2023-04-16T07:19:37;101346.94;;;10.22;87.61
74790;BME280;63318;52.406;13.416;2023-04-16T07:22:06;101350.48;;;10.24;87.54
74790;BME280;63318;52.406;13.416;2023-04-16T07:24:35;101352.92;;;10.25;87.56
74790;BME280;63318;52.406;13.416;2023-04-16T07:27:03;101354.50;;;10.26;87.49
74790;BME280;63318;52.406;13.416;2023-04-16T07:29:32;101357.45;;;10.27;87.30
74790;BME280;63318;52.406;13.416;2023-04-16T07:32:01;101360.40;;;10.27;87.35
74790;BME280;63318;52.406;13.416;2023-04-16T07:34:30;101363.80;;;10.28;87.24
74790;BME280;63318;52.406;13.416;2023-04-16T07:36:58;101365.70;;;10.29;87.25
74790;BME280;63318;52.406;13.416;2023-04-16T07:39:27;101365.54;;;10.30;87.39
74790;BME280;63318;52.406;13.416;2023-04-16T07:41:55;101369.24;;;10.31;87.15
74790;BME280;63318;52.406;13.416;2023-04-16T07:44:25;101369.41;;;10.31;87.08
74790;BME280;63318;52.406;13.416;2023-04-16T07:46:53;101373.06;;;10.31;87.14
74790;BME280;63318;52.406;13.416;2023-04-16T07:49:25;101376.90;;;10.32;86.86
74790;BME280;63318;52.406;13.416;2023-04-16T07:51:54;101377.98;;;10.30;87.06
74790;BME280;63318;52.406;13.416;2023-04-16T07:54:22;101381.92;;;10.34;87.03
74790;BME280;63318;52.406;13.416;2023-04-16T07:56:52;101384.33;;;10.35;87.05
74790;BME280;63318;52.406;13.416;2023-04-16T07:59:21;101383.35;;;10.36;87.04
74790;BME280;63318;52.406;13.416;2023-04-16T08:01:50;101388.21;;;10.38;87.09
74790;BME280;63318;52.406;13.416;2023-04-16T08:04:20;101392.33;;;10.43;86.84
74790;BME280;63318;52.406;13.416;2023-04-16T08:06:48;101390.14;;;10.50;86.93
74790;BME280;63318;52.406;13.416;2023-04-16T08:09:18;101391.63;;;10.53;86.85
74790;BME280;63318;52.406;13.416;2023-04-16T08:11:47;101392.98;;;10.55;86.92
74790;BME280;63318;52.406;13.416;2023-04-16T08:14:16;101395.84;;;10.58;86.98
74790;BME280;63318;52.406;13.416;2023-04-16T08:16:44;101397.12;;;10.61;86.92
74790;BME280;63318;52.406;13.416;2023-04-16T08:19:13;101396.87;;;10.67;86.88
74790;BME280;63318;52.406;13.416;2023-04-16T08:21:42;101398.98;;;10.73;86.88
74790;BME280;63318;52.406;13.416;2023-04-16T08:24:12;101403.84;;;10.79;86.89
74790;BME280;63318;52.406;13.416;2023-04-16T08:26:41;101404.10;;;10.82;86.71
74790;BME280;63318;52.406;13.416;2023-04-16T08:29:10;101408.05;;;10.81;86.69
74790;BME280;63318;52.406;13.416;2023-04-16T08:31:39;101410.20;;;10.85;86.65
74790;BME280;63318;52.406;13.416;2023-04-16T08:34:09;101412.23;;;10.87;86.52
74790;BME280;63318;52.406;13.416;2023-04-16T08:36:38;101415.02;;;10.88;86.48
74790;BME280;63318;52.406;13.416;2023-04-16T08:39:07;101419.55;;;10.90;86.61
74790;BME280;63318;52.406;13.416;2023-04-16T08:41:39;101422.33;;;10.90;86.34
74790;BME280;63318;52.406;13.416;2023-04-16T08:44:10;101423.56;;;10.87;86.23
74790;BME280;63318;52.406;13.416;2023-04-16T08:46:39;101424.70;;;10.84;86.15
74790;BME280;63318;52.406;13.416;2023-04-16T08:49:10;101429.06;;;10.82;86.18
74790;BME280;63318;52.406;13.416;2023-04-16T08:51:50;101432.58;;;10.82;86.14
74790;BME280;63318;52.406;13.416;2023-04-16T08:54:27;101430.65;;;10.84;86.24
74790;BME280;63318;52.406;13.416;2023-04-16T08:56:58;101431.37;;;10.88;86.23
74790;BME280;63318;52.406;13.416;2023-04-16T08:59:27;101436.01;;;10.89;86.17
74790;BME280;63318;52.406;13.416;2023-04-16T09:01:58;101436.55;;;10.90;86.14
74790;BME280;63318;52.406;13.416;2023-04-16T09:04:29;101439.14;;;10.92;86.04
74790;BME280;63318;52.406;13.416;2023-04-16T09:07:00;101439.41;;;10.96;85.95
74790;BME280;63318;52.406;13.416;2023-04-16T09:09:31;101440.98;;;10.98;85.99
74790;BME280;63318;52.406;13.416;2023-04-16T09:12:00;101441.34;;;10.99;85.92
74790;BME280;63318;52.406;13.416;2023-04-16T09:14:29;101444.77;;;11.03;85.90
74790;BME280;63318;52.406;13.416;2023-04-16T09:16:58;101447.71;;;11.06;85.93
74790;BME280;63318;52.406;13.416;2023-04-16T09:19:27;101449.09;;;11.10;85.79
74790;BME280;63318;52.406;13.416;2023-04-16T09:21:55;101458.91;;;11.12;85.76
74790;BME280;63318;52.406;13.416;2023-04-16T09:24:24;101460.14;;;11.12;85.65
74790;BME280;63318;52.406;13.416;2023-04-16T09:26:55;101461.86;;;11.09;85.53
74790;BME280;63318;52.406;13.416;2023-04-16T09:29:38;101464.13;;;11.08;85.56
74790;BME280;63318;52.406;13.416;2023-04-16T09:32:08;101466.88;;;11.05;85.32
74790;BME280;63318;52.406;13.416;2023-04-16T09:34:55;101469.39;;;11.02;85.39
74790;BME280;63318;52.406;13.416;2023-04-16T09:37:24;101471.35;;;11.02;85.37
74790;BME280;63318;52.406;13.416;2023-04-16T09:39:57;101468.19;;;11.03;85.27
74790;BME280;63318;52.406;13.416;2023-04-16T09:42:27;101470.32;;;11.04;85.21
74790;BME280;63318;52.406;13.416;2023-04-16T09:44:55;101473.06;;;11.07;85.37
74790;BME280;63318;52.406;13.416;2023-04-16T09:47:37;101477.73;;;11.10;85.26
74790;BME280;63318;52.406;13.416;2023-04-16T09:50:07;101478.48;;;11.18;85.41
74790;BME280;63318;52.406;13.416;2023-04-16T09:52:37;101480.48;;;11.27;85.55
74790;BME280;63318;52.406;13.416;2023-04-16T09:55:07;101478.09;;;11.37;85.56
74790;BME280;63318;52.406;13.416;2023-04-16T09:57:37;101475.39;;;11.44;85.53
74790;BME280;63318;52.406;13.416;2023-04-16T10:00:08;101476.11;;;11.54;85.61
74790;BME280;63318;52.406;13.416;2023-04-16T10:02:38;101478.14;;;11.62;85.52
74790;BME280;63318;52.406;13.416;2023-04-16T10:05:08;101480.39;;;11.67;85.45
74790;BME280;63318;52.406;13.416;2023-04-16T10:07:37;101483.93;;;11.71;85.39
74790;BME280;63318;52.406;13.416;2023-04-16T10:10:10;101485.13;;;11.79;85.18
74790;BME280;63318;52.406;13.416;2023-04-16T10:12:39;101485.97;;;11.86;85.33
74790;BME280;63318;52.406;13.416;2023-04-16T10:15:09;101488.77;;;11.93;85.21
74790;BME280;63318;52.406;13.416;2023-04-16T10:17:39;101489.71;;;12.00;85.21
74790;BME280;63318;52.406;13.416;2023-04-16T10:20:09;101493.35;;;12.09;85.10
74790;BME280;63318;52.406;13.416;2023-04-16T10:22:38;101493.67;;;12.12;84.97
74790;BME280;63318;52.406;13.416;2023-04-16T10:25:09;101494.18;;;12.15;84.80
74790;BME280;63318;52.406;13.416;2023-04-16T10:27:37;101497.13;;;12.14;84.51
74790;BME280;63318;52.406;13.416;2023-04-16T10:30:10;101494.23;;;12.12;84.55
74790;BME280;63318;52.406;13.416;2023-04-16T10:32:41;101493.94;;;12.11;84.48
74790;BME280;63318;52.406;13.416;2023-04-16T10:35:17;101492.96;;;12.09;84.43
74790;BME280;63318;52.406;13.416;2023-04-16T10:37:47;101496.07;;;12.07;84.12
74790;BME280;63318;52.406;13.416;2023-04-16T10:40:27;101495.63;;;12.02;84.00
74790;BME280;63318;52.406;13.416;2023-04-16T10:42:59;101498.27;;;11.99;84.00
74790;BME280;63318;52.406;13.416;2023-04-16T10:45:32;101502.06;;;11.92;83.71
74790;BME280;63318;52.406;13.416;2023-04-16T10:48:07;101498.68;;;11.87;83.71
74790;BME280;63318;52.406;13.416;2023-04-16T10:50:36;101502.91;;;11.82;83.50
74790;BME280;63318;52.406;13.416;2023-04-16T10:53:24;101509.91;;;11.80;83.56
74790;BME280;63318;52.406;13.416;2023-04-16T10:56:10;101508.49;;;11.77;83.58
74790;BME280;63318;52.406;13.416;2023-04-16T10:58:39;101509.73;;;11.72;83.64
74790;BME280;63318;52.406;13.416;2023-04-16T11:01:13;101509.81;;;11.70;83.66
74790;BME280;63318;52.406;13.416;2023-04-16T11:03:47;101510.77;;;11.67;83.67
74790;BME280;63318;52.406;13.416;2023-04-16T11:06:16;101512.11;;;11.64;83.74
74790;BME280;63318;52.406;13.416;2023-04-16T11:08:51;101507.67;;;11.61;83.77
74790;BME280;63318;52.406;13.416;2023-04-16T11:11:21;101511.42;;;11.57;83.70
74790;BME280;63318;52.406;13.416;2023-04-16T11:13:52;101514.71;;;11.56;83.80
74790;BME280;63318;52.406;13.416;2023-04-16T11:16:21;101517.39;;;11.57;83.88
74790;BME280;63318;52.406;13.416;2023-04-16T11:18:53;101519.52;;;11.60;83.99
74790;BME280;63318;52.406;13.416;2023-04-16T11:21:22;101520.16;;;11.62;83.91
74790;BME280;63318;52.406;13.416;2023-04-16T11:23:51;101519.23;;;11.62;83.79
74790;BME280;63318;52.406;13.416;2023-04-16T11:26:26;101521.04;;;11.60;83.76
74790;BME280;63318;52.406;13.416;2023-04-16T11:28:55;101522.42;;;11.61;83.78
74790;BME280;63318;52.406;13.416;2023-04-16T11:31:24;101523.44;;;11.61;83.81
74790;BME280;63318;52.406;13.416;2023-04-16T11:33:56;101523.88;;;11.61;83.81
74790;BME280;63318;52.406;13.416;2023-04-16T11:36:25;101526.63;;;11.63;83.74
74790;BME280;63318;52.406;13.416;2023-04-16T11:39:02;101525.80;;;11.64;83.85
74790;BME280;63318;52.406;13.416;2023-04-16T11:41:30;101524.00;;;11.63;83.75
74790;BME280;63318;52.406;13.416;2023-04-16T11:43:59;101528.45;;;11.62;83.77
74790;BME280;63318;52.406;13.416;2023-04-16T11:46:39;101531.52;;;11.63;83.83
74790;BME280;63318;52.406;13.416;2023-04-16T11:49:08;101534.61;;;11.65;83.74
74790;BME280;63318;52.406;13.416;2023-04-16T11:51:41;101534.55;;;11.67;83.78
74790;BME280;63318;52.406;13.416;2023-04-16T11:54:18;101529.90;;;11.69;83.69
74790;BME280;63318;52.406;13.416;2023-04-16T11:56:48;101531.34;;;11.74;83.76
74790;BME280;63318;52.406;13.416;2023-04-16T11:59:18;101533.61;;;11.78;83.79
74790;BME280;63318;52.406;13.416;2023-04-16T12:01:49;101531.94;;;11.82;83.68
74790;BME280;63318;52.406;13.416;2023-04-16T12:04:19;101531.19;;;11.87;83.67
74790;BME280;63318;52.406;13.416;2023-04-16T12:07:08;101532.02;;;11.92;83.63
74790;BME280;63318;52.406;13.416;2023-04-16T12:09:38;101535.90;;;11.96;83.33
74790;BME280;63318;52.406;13.416;2023-04-16T12:12:25;101538.98;;;11.97;83.38
74790;BME280;63318;52.406;13.416;2023-04-16T12:14:54;101540.16;;;11.99;83.42
74790;BME280;63318;52.406;13.416;2023-04-16T12:17:27;101538.10;;;11.99;83.41
74790;BME280;63318;52.406;13.416;2023-04-16T12:19:59;101540.77;;;12.00;83.38
74790;BME280;63318;52.406;13.416;2023-04-16T12:22:30;101543.01;;;12.00;83.28
74790;BME280;63318;52.406;13.416;2023-04-16T12:25:01;101546.96;;;11.99;83.21
74790;BME280;63318;52.406;13.416;2023-04-16T12:27:43;101544.38;;;11.97;82.99
74790;BME280;63318;52.406;13.416;2023-04-16T12:30:13;101549.45;;;11.93;82.92
74790;BME280;63318;52.406;13.416;2023-04-16T12:32:43;101548.36;;;11.89;82.86
74790;BME280;63318;52.406;13.416;2023-04-16T12:35:13;101552.66;;;11.84;82.94
74790;BME280;63318;52.406;13.416;2023-04-16T12:37:56;101548.85;;;11.82;82.75
74790;BME280;63318;52.406;13.416;2023-04-16T12:40:25;101545.43;;;11.80;82.64
74790;BME280;63318;52.406;13.416;2023-04-16T12:42:53;101552.42;;;11.78;82.59
74790;BME280;63318;52.406;13.416;2023-04-16T12:45:23;101550.96;;;11.76;82.68
74790;BME280;63318;52.406;13.416;2023-04-16T12:47:52;101549.33;;;11.75;82.71
74790;BME280;63318;52.406;13.416;2023-04-16T12:50:22;101546.97;;;11.72;82.71
74790;BME280;63318;52.406;13.416;2023-04-16T12:52:52;101548.66;;;11.69;82.67
74790;BME280;63318;52.406;13.416;2023-04-16T12:55:24;101553.36;;;11.67;82.73
74790;BME280;63318;52.406;13.416;2023-04-16T12:57:53;101553.02;;;11.63;82.64
74790;BME280;63318;52.406;13.416;2023-04-16T13:00:22;101552.19;;;11.59;82.57